| Date | Time | Temp. (oF) | Dew Point (oF) | Rel. Hum. (%) | Press. (in.) | Wind Dir. | Wind Speed (mph) | Hourly Rainfall (in.) |
|
|---|---|---|---|---|---|---|---|---|---|
| 1 | 01/27 | 00:00 | 32 | 23 | 72 | 29.92 | S | 0 | 0.00 |
| 2 | 01/26 | 23:00 | 32 | 23 | 71 | 29.94 | S | 6 | 0.00 |
| 3 | 01/26 | 22:00 | 30 | 22 | 73 | 29.97 | S | 4 | 0.00 |
| 4 | 01/26 | 21:00 | 29 | 21 | 74 | 30.02 | ESE | 2 | 0.00 |
| 5 | 01/26 | 20:00 | 28 | 20 | 73 | 30.06 | SSE | 1 | 0.00 |
| 6 | 01/26 | 19:00 | 28 | 20 | 72 | 30.07 | ESE | 2 | 0.00 |
| 7 | 01/26 | 18:00 | 30 | 19 | 65 | 30.09 | ENE | 2 | 0.00 |
| 8 | 01/26 | 17:00 | 33 | 20 | 59 | 30.13 | NE | 1 | 0.00 |
| 9 | 01/26 | 16:00 | 33 | 18 | 56 | 30.14 | WNW | 1 | 0.00 |
| 10 | 01/26 | 15:00 | 33 | 19 | 57 | 30.14 | SSW | 5 | 0.00 |
| 11 | 01/26 | 14:00 | 33 | 20 | 59 | 30.17 | S | 5 | 0.00 |
| 12 | 01/26 | 13:00 | 30 | 18 | 62 | 30.23 | SW | 2 | 0.00 |
| 13 | 01/26 | 12:00 | 28 | 17 | 63 | 30.28 | W | 5 | 0.00 |
| 14 | 01/26 | 11:00 | 27 | 16 | 65 | 30.31 | NW | 1 | 0.00 |
| 15 | 01/26 | 10:00 | 26 | 16 | 66 | 30.34 | SSW | 4 | 0.00 |
| 16 | 01/26 | 09:00 | 22 | 15 | 75 | 30.36 | S | 2 | 0.00 |
| 17 | 01/26 | 08:00 | 16 | 12 | 85 | 30.37 | ENE | 1 | 0.00 |
| 18 | 01/26 | 07:00 | 16 | 11 | 81 | 30.38 | NW | 2 | 0.00 |
| 19 | 01/26 | 06:00 | 17 | 11 | 77 | 30.39 | SSW | 0 | 0.00 |
| 20 | 01/26 | 05:00 | 18 | 11 | 74 | 30.37 | WSW | 2 | 0.00 |
| 21 | 01/26 | 04:00 | 20 | 12 | 71 | 30.34 | NNW | 2 | 0.00 |
| 22 | 01/26 | 03:00 | 20 | 11 | 69 | 30.35 | NW | 5 | 0.00 |
| 23 | 01/26 | 02:00 | 22 | 12 | 65 | 30.35 | WNW | 3 | 0.00 |
| 24 | 01/26 | 01:00 | 22 | 11 | 64 | 30.34 | NW | 4 | 0.00 |